الصفحة الرئيسية
METAR-TAF:

METAR-TAF

مطار :

مطار شانغي سنغافورة

سنغافورة, سنغافورة

دائرة عرض: 01-22N, خط طول: 103-59E, ارتفاع: 5 متر

مراقبة الطقس الحالي

تاريخ ووقت الإصدار 38 دقيقة قبل الساعة 22:00UTC
ريح 6 عقدة من الجنوب, الاتجاه يتراوح بين الجنوب و الغرب/الجنوب الغربي
درجة الحرارة 28°درجة مئوية
الرطوبة 84%
ضغط 1009 hPa
الرؤية 10 كم أو أكثر
غيوم قليلة على ارتفاع 1600 قدم
غيوم مفككة على ارتفاع 14000 قدم

METAR: WSSS 022200Z 18006KT 170V240 9999 FEW016 BKN140 28/25 Q1009 NOSIG

زمن: 06:38 (22:38 UTC)

توقعات

تاريخ ووقت الإصدار 5ساعات و 38 دقيقة قبل الساعة 17:00UTC
التوقعات صالحة من02 الساعة 18 UTC إلى 04 الساعة 00 UTC
ريح 10 عقدة من الجنوب/الجنوب الشرقي
الرؤية 10 كم أو أكثر
غيوم قليلة على ارتفاع 1500 قدم
غيوم متفرقة على ارتفاع 2000 قدم

TAF: WSSS 021700Z 0218/0400 16010KT 9999 FEW015 SCT020

أرصاد الطقس والتوقعات من أكثر من 4000 مطار (تقارير الطقس للمطار METAR والتنبؤ بالطقس بالمطارTAF).

المحطات المتاحة هي النقط الصفراء والحمراء على الخريطة.

حرك المؤشر فوق النقطة لمعرفة اسم المحطة.

ثم انقر لمعرفة أرصاد وتوقعات الطقس.

لتغيير الخارطة: اضغط على الأزرار الخضراء مع رمز الصليب الأسود للتكبير. على الزر الأخضر مع شرطة للتصغير، أو على الأسهم الخضراء للخرائط المجاورة.


METAR-TAF: